X  Blizu METAR Podaci o vazduhoplovstvu     EHKD De Kooy Airport
Temperatura
55°F Temperatura
52°F Tačka Rose
88% Vlaga



Vetar
6 MPS
10 KM/S
3 M/S
5 Čvorovi



10°
S
Trenutna situacija

Vedro Vedro
Vazdušni pritisak 1015.92 (hPa) - 30 (inHg)
Vidljivost 6 (Milje) - 9.7 (km)
Aerodrom
Aerodromski kod. EHKD

Lokacija: De Kooy Airport
Udaljenost: 34 (mi)

Metar:
EHKD 190155Z AUTO 01005KT 320V040 9999 NCD 13/11 Q1016 BLU

Vreme: 19-06-2024 03:55 CEST